YMF7561 UAAA-UZTT
Flight info
| Callsign | YMF7561 |
|---|---|
| Flight time | 1h 13m |
| Altitude | 40000 |
| Route | LAKEL1B LAKEL L135 MAMIR P984 TISIB TISIB2T |
| Aircraft | MD11/H-SDE1E2E3FGHIJ2J3J4J5M1RWXY/LB1D1 |
Departure
| Time | 2026-05-05 09:34 |
|---|---|
| Airport | Almaty International Airport (UAAA) |
Arrival
| Time | 2026-05-05 10:47 |
|---|---|
| Airport | Tashkent International Airport (UZTT) |
| Time | Latitude | Longitude | Altitude | Speed | Heading |
|---|---|---|---|---|---|
| 2026-05-05 09:26 | 43.35041 | 77.01717 | 2258 ft | 0 kts | 71° |
| 2026-05-05 09:28 | 43.35042 | 77.01721 | 2258 ft | 2 kts | 71° |
| 2026-05-05 09:29 | 43.35052 | 77.01762 | 2258 ft | 6 kts | 80° |
| 2026-05-05 09:29 | 43.35050 | 77.01814 | 2258 ft | 11 kts | 94° |
| 2026-05-05 09:29 | 43.35042 | 77.01963 | 2259 ft | 21 kts | 94° |
| 2026-05-05 09:29 | 43.35021 | 77.02191 | 2260 ft | 25 kts | 114° |
| 2026-05-05 09:30 | 43.34882 | 77.02245 | 2265 ft | 16 kts | 196° |
| 2026-05-05 09:30 | 43.34813 | 77.02200 | 2265 ft | 18 kts | 232° |
| 2026-05-05 09:30 | 43.34801 | 77.01943 | 2264 ft | 24 kts | 276° |
| 2026-05-05 09:30 | 43.34814 | 77.01784 | 2263 ft | 27 kts | 276° |
| 2026-05-05 09:31 | 43.34825 | 77.01533 | 2263 ft | 19 kts | 242° |
| 2026-05-05 09:31 | 43.34707 | 77.01454 | 2265 ft | 19 kts | 190° |
| 2026-05-05 09:31 | 43.34528 | 77.01500 | 2272 ft | 21 kts | 157° |
| 2026-05-05 09:31 | 43.34435 | 77.01556 | 2273 ft | 22 kts | 156° |
| 2026-05-05 09:32 | 43.34289 | 77.01649 | 2275 ft | 23 kts | 153° |
| 2026-05-05 09:32 | 43.34243 | 77.01682 | 2276 ft | 1 kts | 152° |
| 2026-05-05 09:32 | 43.34220 | 77.01699 | 2276 ft | 5 kts | 152° |
| 2026-05-05 09:32 | 43.34179 | 77.01729 | 2277 ft | 8 kts | 143° |
| 2026-05-05 09:33 | 43.34162 | 77.01784 | 2277 ft | 12 kts | 86° |
| 2026-05-05 09:33 | 43.34212 | 77.01926 | 2277 ft | 22 kts | 57° |
| 2026-05-05 09:33 | 43.34380 | 77.02267 | 2277 ft | 81 kts | 54° |
| 2026-05-05 09:33 | 43.35074 | 77.03684 | 2287 ft | 179 kts | 54° |
| 2026-05-05 09:34 | 43.35553 | 77.04653 | 2600 ft | 190 kts | 56° |
| 2026-05-05 09:34 | 43.36258 | 77.06045 | 3611 ft | 177 kts | 54° |
| 2026-05-05 09:34 | 43.37174 | 77.07852 | 4635 ft | 177 kts | 54° |
| 2026-05-05 09:34 | 43.37639 | 77.08752 | 5138 ft | 176 kts | 53° |
| 2026-05-05 09:35 | 43.38360 | 77.10108 | 5714 ft | 183 kts | 53° |
| 2026-05-05 09:35 | 43.40037 | 77.13289 | 6347 ft | 232 kts | 54° |
| 2026-05-05 09:35 | 43.41045 | 77.15194 | 6922 ft | 255 kts | 47° |
| 2026-05-05 09:36 | 43.43089 | 77.16877 | 8056 ft | 273 kts | 11° |
| 2026-05-05 09:36 | 43.44997 | 77.16933 | 8445 ft | 283 kts | 349° |
| 2026-05-05 09:36 | 43.46224 | 77.16367 | 8475 ft | 283 kts | 333° |
| 2026-05-05 09:36 | 43.47885 | 77.14906 | 8456 ft | 285 kts | 326° |
| 2026-05-05 09:37 | 43.49521 | 77.13368 | 8424 ft | 286 kts | 329° |
| 2026-05-05 09:37 | 43.51250 | 77.12007 | 8401 ft | 287 kts | 333° |
| 2026-05-05 09:37 | 43.52900 | 77.10474 | 8425 ft | 288 kts | 318° |
| 2026-05-05 09:37 | 43.54354 | 77.07404 | 9008 ft | 296 kts | 284° |
| 2026-05-05 09:38 | 43.54589 | 77.05600 | 9900 ft | 293 kts | 277° |
| 2026-05-05 09:38 | 43.54721 | 77.02748 | 10729 ft | 310 kts | 271° |
| 2026-05-05 09:38 | 43.54795 | 76.99658 | 11232 ft | 339 kts | 276° |
| 2026-05-05 09:38 | 43.55240 | 76.96348 | 11690 ft | 368 kts | 287° |
| 2026-05-05 09:39 | 43.56309 | 76.93010 | 12095 ft | 398 kts | 302° |
| 2026-05-05 09:39 | 43.58727 | 76.89000 | 13006 ft | 421 kts | 315° |
| 2026-05-05 09:39 | 43.60854 | 76.86176 | 14005 ft | 432 kts | 317° |
| 2026-05-05 09:39 | 43.63043 | 76.83284 | 15089 ft | 440 kts | 316° |
| 2026-05-05 09:40 | 43.64485 | 76.81307 | 15834 ft | 444 kts | 316° |
| 2026-05-05 09:40 | 43.66636 | 76.78275 | 16954 ft | 450 kts | 315° |
| 2026-05-05 09:40 | 43.68766 | 76.75109 | 17988 ft | 457 kts | 310° |
| 2026-05-05 09:40 | 43.70509 | 76.71403 | 19045 ft | 464 kts | 297° |
| 2026-05-05 09:41 | 43.71586 | 76.67240 | 20068 ft | 470 kts | 283° |
| 2026-05-05 09:41 | 43.71944 | 76.62705 | 21086 ft | 476 kts | 270° |
| 2026-05-05 09:41 | 43.71245 | 76.56692 | 22366 ft | 484 kts | 252° |
| 2026-05-05 09:41 | 43.70403 | 76.53777 | 22998 ft | 487 kts | 244° |
| 2026-05-05 09:42 | 43.68671 | 76.49807 | 23904 ft | 493 kts | 234° |
| 2026-05-05 09:42 | 43.66408 | 76.46246 | 24827 ft | 498 kts | 224° |
| 2026-05-05 09:42 | 43.63656 | 76.43269 | 25672 ft | 503 kts | 213° |
| 2026-05-05 09:42 | 43.60570 | 76.40968 | 26527 ft | 508 kts | 205° |
| 2026-05-05 09:43 | 43.57226 | 76.39293 | 27493 ft | 510 kts | 197° |
| 2026-05-05 09:43 | 43.53739 | 76.38248 | 28629 ft | 509 kts | 189° |
| 2026-05-05 09:43 | 43.50266 | 76.37824 | 29789 ft | 507 kts | 182° |
| 2026-05-05 09:43 | 43.46748 | 76.38005 | 30956 ft | 504 kts | 175° |
| 2026-05-05 09:44 | 43.43324 | 76.38784 | 32085 ft | 500 kts | 168° |
| 2026-05-05 09:44 | 43.40020 | 76.40142 | 33127 ft | 497 kts | 160° |
| 2026-05-05 09:44 | 43.36862 | 76.42071 | 34120 ft | 493 kts | 153° |
| 2026-05-05 09:44 | 43.33947 | 76.44435 | 34886 ft | 490 kts | 149° |
| 2026-05-05 09:45 | 43.30985 | 76.46737 | 35480 ft | 488 kts | 155° |
| 2026-05-05 09:45 | 43.27859 | 76.48560 | 35988 ft | 486 kts | 162° |
| 2026-05-05 09:45 | 43.24657 | 76.49929 | 36479 ft | 485 kts | 166° |
| 2026-05-05 09:45 | 43.21383 | 76.51076 | 37064 ft | 485 kts | 168° |
| 2026-05-05 09:46 | 43.18086 | 76.52143 | 37635 ft | 485 kts | 168° |
| 2026-05-05 09:46 | 43.14814 | 76.53218 | 38140 ft | 485 kts | 168° |
| 2026-05-05 09:46 | 43.11568 | 76.54304 | 38600 ft | 485 kts | 167° |
| 2026-05-05 09:46 | 43.08307 | 76.55405 | 38993 ft | 485 kts | 168° |
| 2026-05-05 09:47 | 43.04985 | 76.56239 | 39386 ft | 482 kts | 176° |
| 2026-05-05 09:47 | 43.01649 | 76.56371 | 39700 ft | 481 kts | 185° |
| 2026-05-05 09:47 | 42.98357 | 76.55806 | 39972 ft | 479 kts | 194° |
| 2026-05-05 09:47 | 42.94134 | 76.54003 | 40313 ft | 476 kts | 206° |
| 2026-05-05 09:48 | 42.89408 | 76.50248 | 40351 ft | 469 kts | 221° |
| 2026-05-05 09:48 | 42.85088 | 76.43764 | 40381 ft | 463 kts | 240° |
| 2026-05-05 09:49 | 42.82351 | 76.35862 | 40398 ft | 465 kts | 249° |
| 2026-05-05 09:49 | 42.79801 | 76.27793 | 40386 ft | 468 kts | 246° |
| 2026-05-05 09:50 | 42.77036 | 76.19790 | 40377 ft | 468 kts | 245° |
| 2026-05-05 09:50 | 42.74234 | 76.11799 | 40376 ft | 468 kts | 246° |
| 2026-05-05 09:51 | 42.71477 | 76.03874 | 40347 ft | 467 kts | 246° |
| 2026-05-05 09:51 | 42.68718 | 75.95894 | 40358 ft | 467 kts | 246° |
| 2026-05-05 09:52 | 42.65971 | 75.87919 | 40343 ft | 467 kts | 246° |
| 2026-05-05 09:52 | 42.63236 | 75.79950 | 40340 ft | 468 kts | 246° |
| 2026-05-05 09:53 | 42.60515 | 75.72011 | 40344 ft | 468 kts | 246° |
| 2026-05-05 09:53 | 42.57790 | 75.64028 | 40345 ft | 468 kts | 246° |
| 2026-05-05 09:54 | 42.55063 | 75.56046 | 40342 ft | 468 kts | 247° |
| 2026-05-05 09:54 | 42.52350 | 75.48066 | 40357 ft | 469 kts | 247° |
| 2026-05-05 09:55 | 42.49626 | 75.40053 | 40368 ft | 469 kts | 247° |
| 2026-05-05 09:55 | 42.46430 | 75.30753 | 40372 ft | 469 kts | 245° |
| 2026-05-05 09:56 | 42.44104 | 75.24147 | 40356 ft | 470 kts | 247° |
| 2026-05-05 09:56 | 42.41679 | 75.15991 | 40350 ft | 469 kts | 252° |
| 2026-05-05 09:57 | 42.39166 | 75.06221 | 40345 ft | 469 kts | 252° |
| 2026-05-05 09:57 | 42.37315 | 74.99257 | 40351 ft | 469 kts | 251° |
| 2026-05-05 09:58 | 42.35035 | 74.90708 | 40362 ft | 469 kts | 252° |
| 2026-05-05 09:58 | 42.32791 | 74.82268 | 40358 ft | 469 kts | 252° |
| 2026-05-05 09:59 | 42.30570 | 74.73856 | 40355 ft | 470 kts | 252° |
| 2026-05-05 09:59 | 42.27964 | 74.63957 | 40375 ft | 471 kts | 252° |
| 2026-05-05 10:00 | 42.26108 | 74.56896 | 40372 ft | 470 kts | 252° |
| 2026-05-05 10:00 | 42.23900 | 74.48440 | 40380 ft | 470 kts | 252° |
| 2026-05-05 10:01 | 42.21709 | 74.40050 | 40383 ft | 470 kts | 253° |
| 2026-05-05 10:01 | 42.19547 | 74.31702 | 40377 ft | 470 kts | 252° |
| 2026-05-05 10:02 | 42.17387 | 74.23389 | 40389 ft | 470 kts | 252° |
| 2026-05-05 10:02 | 42.15245 | 74.15068 | 40396 ft | 470 kts | 252° |
| 2026-05-05 10:03 | 42.13091 | 74.06734 | 40410 ft | 471 kts | 253° |
| 2026-05-05 10:03 | 42.10868 | 73.98420 | 40408 ft | 472 kts | 252° |
| 2026-05-05 10:04 | 42.08603 | 73.90112 | 40392 ft | 473 kts | 252° |
| 2026-05-05 10:04 | 42.06393 | 73.81844 | 40385 ft | 472 kts | 252° |
| 2026-05-05 10:05 | 42.04183 | 73.73571 | 40384 ft | 472 kts | 253° |
| 2026-05-05 10:05 | 42.02086 | 73.65257 | 40385 ft | 471 kts | 253° |
| 2026-05-05 10:06 | 41.99923 | 73.56914 | 40374 ft | 471 kts | 253° |
| 2026-05-05 10:06 | 41.97764 | 73.48579 | 40376 ft | 472 kts | 253° |
| 2026-05-05 10:07 | 41.95633 | 73.40268 | 40380 ft | 472 kts | 253° |
| 2026-05-05 10:07 | 41.93503 | 73.31946 | 40373 ft | 471 kts | 253° |
| 2026-05-05 10:08 | 41.91387 | 73.23636 | 40362 ft | 471 kts | 253° |
| 2026-05-05 10:08 | 41.89261 | 73.15279 | 40363 ft | 472 kts | 253° |
| 2026-05-05 10:09 | 41.87147 | 73.06929 | 40348 ft | 472 kts | 253° |
| 2026-05-05 10:09 | 41.85025 | 72.98544 | 40338 ft | 472 kts | 254° |
| 2026-05-05 10:10 | 41.82920 | 72.90242 | 40336 ft | 472 kts | 253° |
| 2026-05-05 10:10 | 41.80707 | 72.81999 | 40352 ft | 472 kts | 252° |
| 2026-05-05 10:11 | 41.78466 | 72.73747 | 40335 ft | 472 kts | 253° |
| 2026-05-05 10:11 | 41.76246 | 72.65500 | 40334 ft | 471 kts | 253° |
| 2026-05-05 10:12 | 41.74032 | 72.57240 | 40335 ft | 472 kts | 253° |
| 2026-05-05 10:12 | 41.71838 | 72.49016 | 40348 ft | 472 kts | 253° |
| 2026-05-05 10:13 | 41.69640 | 72.40754 | 40349 ft | 471 kts | 253° |
| 2026-05-05 10:13 | 41.67093 | 72.31150 | 40358 ft | 471 kts | 253° |
| 2026-05-05 10:14 | 41.65283 | 72.24316 | 40353 ft | 471 kts | 253° |
| 2026-05-05 10:14 | 41.63105 | 72.16058 | 40360 ft | 471 kts | 253° |
| 2026-05-05 10:15 | 41.60951 | 72.07873 | 40354 ft | 471 kts | 253° |
| 2026-05-05 10:15 | 41.58789 | 71.99632 | 40352 ft | 471 kts | 253° |
| 2026-05-05 10:16 | 41.56627 | 71.91378 | 40336 ft | 471 kts | 253° |
| 2026-05-05 10:16 | 41.54440 | 71.83164 | 40333 ft | 471 kts | 252° |
| 2026-05-05 10:17 | 41.52159 | 71.75014 | 40324 ft | 470 kts | 252° |
| 2026-05-05 10:17 | 41.49888 | 71.66797 | 40313 ft | 470 kts | 253° |
| 2026-05-05 10:18 | 41.47655 | 71.58645 | 40308 ft | 471 kts | 252° |
| 2026-05-05 10:18 | 41.45398 | 71.50433 | 40298 ft | 471 kts | 253° |
| 2026-05-05 10:19 | 41.43175 | 71.42270 | 40300 ft | 470 kts | 253° |
| 2026-05-05 10:19 | 41.40926 | 71.34048 | 40293 ft | 469 kts | 252° |
| 2026-05-05 10:20 | 41.38666 | 71.25868 | 40289 ft | 470 kts | 252° |
| 2026-05-05 10:20 | 41.36332 | 71.17784 | 40298 ft | 471 kts | 251° |
| 2026-05-05 10:21 | 41.33994 | 71.09692 | 40299 ft | 470 kts | 252° |
| 2026-05-05 10:21 | 41.31677 | 71.01611 | 40325 ft | 470 kts | 252° |
| 2026-05-05 10:22 | 41.29372 | 70.93530 | 40354 ft | 470 kts | 252° |
| 2026-05-05 10:22 | 41.27066 | 70.85429 | 39778 ft | 475 kts | 252° |
| 2026-05-05 10:23 | 41.25905 | 70.81338 | 39132 ft | 476 kts | 252° |
| 2026-05-05 10:23 | 41.24743 | 70.77241 | 38369 ft | 477 kts | 252° |
| 2026-05-05 10:23 | 41.23209 | 70.71831 | 37720 ft | 469 kts | 252° |
| 2026-05-05 10:23 | 41.22448 | 70.69137 | 37157 ft | 471 kts | 252° |
| 2026-05-05 10:24 | 41.20929 | 70.63763 | 36196 ft | 468 kts | 252° |
| 2026-05-05 10:24 | 41.20166 | 70.61058 | 35720 ft | 468 kts | 252° |
| 2026-05-05 10:24 | 41.19033 | 70.57035 | 35073 ft | 469 kts | 252° |
| 2026-05-05 10:24 | 41.17894 | 70.52992 | 34374 ft | 471 kts | 252° |
| 2026-05-05 10:25 | 41.16751 | 70.48930 | 33535 ft | 474 kts | 252° |
| 2026-05-05 10:25 | 41.15595 | 70.44823 | 32679 ft | 475 kts | 252° |
| 2026-05-05 10:25 | 41.14454 | 70.40742 | 31846 ft | 476 kts | 252° |
| 2026-05-05 10:25 | 41.13299 | 70.36621 | 31024 ft | 476 kts | 252° |
| 2026-05-05 10:26 | 41.12156 | 70.32539 | 30250 ft | 476 kts | 251° |
| 2026-05-05 10:26 | 41.10989 | 70.28463 | 29497 ft | 478 kts | 250° |
| 2026-05-05 10:26 | 41.09707 | 70.24408 | 28754 ft | 484 kts | 248° |
| 2026-05-05 10:26 | 41.08245 | 70.20326 | 28091 ft | 486 kts | 245° |
| 2026-05-05 10:27 | 41.06675 | 70.16366 | 27373 ft | 491 kts | 243° |
| 2026-05-05 10:27 | 41.05019 | 70.12369 | 26610 ft | 496 kts | 243° |
| 2026-05-05 10:27 | 41.03358 | 70.08387 | 25835 ft | 496 kts | 243° |
| 2026-05-05 10:27 | 41.01708 | 70.04376 | 25079 ft | 494 kts | 243° |
| 2026-05-05 10:28 | 41.00096 | 70.00447 | 24333 ft | 490 kts | 243° |
| 2026-05-05 10:28 | 40.98462 | 69.96519 | 23592 ft | 484 kts | 243° |
| 2026-05-05 10:28 | 40.96868 | 69.92651 | 22890 ft | 479 kts | 243° |
| 2026-05-05 10:28 | 40.95295 | 69.88812 | 22207 ft | 474 kts | 243° |
| 2026-05-05 10:29 | 40.93736 | 69.84987 | 21518 ft | 468 kts | 244° |
| 2026-05-05 10:29 | 40.92473 | 69.81102 | 20867 ft | 461 kts | 253° |
| 2026-05-05 10:29 | 40.91709 | 69.77008 | 20208 ft | 455 kts | 262° |
| 2026-05-05 10:29 | 40.91449 | 69.72872 | 19557 ft | 449 kts | 270° |
| 2026-05-05 10:30 | 40.91505 | 69.68775 | 18905 ft | 445 kts | 273° |
| 2026-05-05 10:30 | 40.91644 | 69.64719 | 18256 ft | 442 kts | 273° |
| 2026-05-05 10:30 | 40.91750 | 69.60702 | 17622 ft | 438 kts | 273° |
| 2026-05-05 10:30 | 40.91831 | 69.56685 | 16992 ft | 434 kts | 272° |
| 2026-05-05 10:31 | 40.91900 | 69.52750 | 16372 ft | 430 kts | 272° |
| 2026-05-05 10:31 | 40.91950 | 69.48852 | 15767 ft | 426 kts | 271° |
| 2026-05-05 10:31 | 40.91977 | 69.44942 | 15169 ft | 424 kts | 271° |
| 2026-05-05 10:31 | 40.92000 | 69.41092 | 14824 ft | 422 kts | 271° |
| 2026-05-05 10:32 | 40.92033 | 69.37221 | 14532 ft | 422 kts | 271° |
| 2026-05-05 10:32 | 40.92081 | 69.33341 | 14202 ft | 420 kts | 271° |
| 2026-05-05 10:32 | 40.92122 | 69.29538 | 13894 ft | 417 kts | 270° |
| 2026-05-05 10:32 | 40.92154 | 69.25726 | 13587 ft | 415 kts | 270° |
| 2026-05-05 10:33 | 40.92188 | 69.21921 | 13273 ft | 412 kts | 270° |
| 2026-05-05 10:33 | 40.92222 | 69.18182 | 12993 ft | 410 kts | 270° |
| 2026-05-05 10:33 | 40.92259 | 69.14410 | 12708 ft | 409 kts | 270° |
| 2026-05-05 10:33 | 40.92313 | 69.10697 | 12381 ft | 407 kts | 274° |
| 2026-05-05 10:34 | 40.92890 | 69.07070 | 12089 ft | 406 kts | 290° |
| 2026-05-05 10:34 | 40.94249 | 69.03810 | 11830 ft | 403 kts | 307° |
| 2026-05-05 10:34 | 40.96202 | 69.01283 | 11512 ft | 394 kts | 323° |
| 2026-05-05 10:34 | 40.98605 | 68.99655 | 11226 ft | 385 kts | 340° |
| 2026-05-05 10:35 | 41.01173 | 68.98896 | 10947 ft | 375 kts | 350° |
| 2026-05-05 10:35 | 41.03741 | 68.98461 | 10624 ft | 368 kts | 352° |
| 2026-05-05 10:35 | 41.06258 | 68.98107 | 10323 ft | 360 kts | 354° |
| 2026-05-05 10:35 | 41.09505 | 68.98573 | 10010 ft | 349 kts | 21° |
| 2026-05-05 10:36 | 41.10912 | 68.99553 | 10027 ft | 338 kts | 36° |
| 2026-05-05 10:36 | 41.12496 | 69.01752 | 10031 ft | 323 kts | 59° |
| 2026-05-05 10:36 | 41.13277 | 69.04487 | 10047 ft | 312 kts | 80° |
| 2026-05-05 10:36 | 41.13553 | 69.07289 | 9840 ft | 310 kts | 86° |
| 2026-05-05 10:37 | 41.13707 | 69.10133 | 9712 ft | 302 kts | 86° |
| 2026-05-05 10:37 | 41.13897 | 69.12874 | 9554 ft | 297 kts | 84° |
| 2026-05-05 10:37 | 41.14162 | 69.15574 | 9336 ft | 292 kts | 82° |
| 2026-05-05 10:37 | 41.14446 | 69.18198 | 9217 ft | 284 kts | 82° |
| 2026-05-05 10:38 | 41.14726 | 69.20757 | 9097 ft | 276 kts | 82° |
| 2026-05-05 10:38 | 41.14986 | 69.23215 | 8982 ft | 268 kts | 83° |
| 2026-05-05 10:38 | 41.15245 | 69.25616 | 8866 ft | 260 kts | 82° |
| 2026-05-05 10:38 | 41.15516 | 69.27957 | 8673 ft | 255 kts | 82° |
| 2026-05-05 10:39 | 41.15785 | 69.30259 | 8435 ft | 253 kts | 82° |
| 2026-05-05 10:39 | 41.16043 | 69.32556 | 8168 ft | 252 kts | 82° |
| 2026-05-05 10:39 | 41.16295 | 69.34842 | 7895 ft | 251 kts | 82° |
| 2026-05-05 10:39 | 41.16631 | 69.37892 | 7537 ft | 250 kts | 82° |
| 2026-05-05 10:40 | 41.16799 | 69.39389 | 7367 ft | 249 kts | 81° |
| 2026-05-05 10:40 | 41.17057 | 69.41662 | 7106 ft | 248 kts | 81° |
| 2026-05-05 10:40 | 41.17307 | 69.43914 | 6846 ft | 247 kts | 81° |
| 2026-05-05 10:40 | 41.17633 | 69.46908 | 6517 ft | 246 kts | 81° |
| 2026-05-05 10:41 | 41.17798 | 69.48400 | 6353 ft | 246 kts | 81° |
| 2026-05-05 10:41 | 41.18083 | 69.50624 | 6071 ft | 245 kts | 71° |
| 2026-05-05 10:41 | 41.18912 | 69.52498 | 5830 ft | 238 kts | 40° |
| 2026-05-05 10:41 | 41.20319 | 69.53532 | 5541 ft | 234 kts | 9° |
| 2026-05-05 10:42 | 41.23495 | 69.53010 | 4890 ft | 234 kts | 343° |
| 2026-05-05 10:42 | 41.25059 | 69.52451 | 4618 ft | 231 kts | 345° |
| 2026-05-05 10:42 | 41.26580 | 69.51985 | 4511 ft | 219 kts | 343° |
| 2026-05-05 10:43 | 41.27822 | 69.51020 | 4390 ft | 202 kts | 308° |
| 2026-05-05 10:43 | 41.28406 | 69.49419 | 4132 ft | 189 kts | 274° |
| 2026-05-05 10:43 | 41.28331 | 69.47689 | 4064 ft | 194 kts | 259° |
| 2026-05-05 10:43 | 41.27935 | 69.45336 | 3569 ft | 189 kts | 256° |
| 2026-05-05 10:44 | 41.27648 | 69.43724 | 3359 ft | 170 kts | 257° |
| 2026-05-05 10:44 | 41.27417 | 69.42246 | 3157 ft | 158 kts | 259° |
| 2026-05-05 10:44 | 41.27239 | 69.40838 | 2993 ft | 154 kts | 261° |
| 2026-05-05 10:44 | 41.27137 | 69.39892 | 2866 ft | 156 kts | 262° |
| 2026-05-05 10:45 | 41.26937 | 69.38000 | 2585 ft | 155 kts | 261° |
| 2026-05-05 10:45 | 41.26841 | 69.37058 | 2458 ft | 156 kts | 261° |
| 2026-05-05 10:45 | 41.26634 | 69.35165 | 2183 ft | 156 kts | 261° |
| 2026-05-05 10:45 | 41.26535 | 69.34228 | 2063 ft | 154 kts | 261° |
| 2026-05-05 10:46 | 41.26313 | 69.32352 | 1790 ft | 155 kts | 261° |
| 2026-05-05 10:46 | 41.26213 | 69.31409 | 1684 ft | 152 kts | 261° |
| 2026-05-05 10:46 | 41.26052 | 69.30012 | 1484 ft | 155 kts | 261° |
| 2026-05-05 10:46 | 41.25910 | 69.28722 | 1431 ft | 112 kts | 262° |
| 2026-05-05 10:47 | 41.25833 | 69.28021 | 1430 ft | 52 kts | 261° |
| 2026-05-05 10:47 | 41.25787 | 69.27647 | 1430 ft | 19 kts | 261° |
| 2026-05-05 10:47 | 41.25807 | 69.27531 | 1430 ft | 22 kts | 314° |
| 2026-05-05 10:47 | 41.25948 | 69.27370 | 1430 ft | 30 kts | 319° |
| 2026-05-05 10:48 | 41.26092 | 69.27209 | 1429 ft | 25 kts | 338° |
| 2026-05-05 10:48 | 41.26259 | 69.27227 | 1430 ft | 25 kts | 352° |
| 2026-05-05 10:48 | 41.26396 | 69.27148 | 1430 ft | 8 kts | 349° |
| 2026-05-05 10:48 | 41.26402 | 69.27146 | 1430 ft | 0 kts | 351° |